createdAt,value
2022-12-06T00:00:49.576Z,71.80
2022-12-06T00:03:56.075Z,72.50
2022-12-06T00:06:58.851Z,66.00
2022-12-06T00:10:01.920Z,66.40
2022-12-06T00:13:05.701Z,56.30
2022-12-06T00:16:11.753Z,53.80
2022-12-06T00:19:17.552Z,54.80
2022-12-06T00:22:20.363Z,47.10
2022-12-06T00:25:23.106Z,30.30
2022-12-06T00:28:25.895Z,44.60
2022-12-06T00:31:30.703Z,56.00
2022-12-06T00:34:33.599Z,47.80
2022-12-06T00:37:36.498Z,45.30
2022-12-06T00:40:39.199Z,43.10
2022-12-06T00:43:42.401Z,29.00
2022-12-06T00:46:45.127Z,47.10
2022-12-06T00:49:47.923Z,37.00
2022-12-06T00:52:50.683Z,48.00
2022-12-06T00:55:55.445Z,40.90
2022-12-06T00:58:58.399Z,37.10
2022-12-06T01:02:01.125Z,35.20
2022-12-06T01:05:04.155Z,51.40
2022-12-06T01:08:07.083Z,59.70
2022-12-06T01:11:11.458Z,53.30
2022-12-06T01:14:14.264Z,49.80
2022-12-06T01:17:17.108Z,46.10
2022-12-06T01:20:19.963Z,39.10
2022-12-06T01:23:22.704Z,37.50
2022-12-06T01:26:28.473Z,36.00
2022-12-06T01:29:31.209Z,36.20
2022-12-06T01:32:34.206Z,40.10
2022-12-06T01:35:42.069Z,42.30
2022-12-06T01:38:44.879Z,46.60
2022-12-06T01:41:47.666Z,52.10
2022-12-06T01:44:55.915Z,48.90
2022-12-06T01:47:58.721Z,62.10
2022-12-06T01:51:03.505Z,62.10
2022-12-06T01:54:10.991Z,60.50
2022-12-06T01:57:15.340Z,62.00
2022-12-06T02:00:18.641Z,59.30
2022-12-06T02:03:27.524Z,57.50
2022-12-06T02:06:32.080Z,64.00
2022-12-06T02:09:35.074Z,64.50
2022-12-06T02:12:37.848Z,63.70
2022-12-06T02:16:05.268Z,66.90
2022-12-06T02:19:29.617Z,73.30
2022-12-06T02:23:10.377Z,72.00
2022-12-06T02:26:35.057Z,76.50
2022-12-06T02:30:00.195Z,67.00
2022-12-06T02:33:11.535Z,84.40
2022-12-06T02:36:24.114Z,77.30
2022-12-06T02:39:36.199Z,79.00
2022-12-06T02:42:54.185Z,80.70
2022-12-06T02:46:00.994Z,86.30
2022-12-06T02:49:07.270Z,84.80
2022-12-06T02:52:10.493Z,86.90
2022-12-06T02:55:15.730Z,88.20
2022-12-06T02:58:18.750Z,93.40
2022-12-06T03:01:26.792Z,75.70
2022-12-06T03:04:58.458Z,58.80
2022-12-06T03:08:12.098Z,85.20
2022-12-06T03:11:15.523Z,75.70
2022-12-06T03:14:23.269Z,72.90
2022-12-06T03:17:37.126Z,72.50
2022-12-06T03:20:43.165Z,72.60
2022-12-06T03:23:50.536Z,74.80
2022-12-06T03:26:56.734Z,72.50
2022-12-06T03:30:05.188Z,70.70
2022-12-06T03:33:09.544Z,69.40
2022-12-06T03:36:14.756Z,71.20
2022-12-06T03:39:31.570Z,71.60
2022-12-06T03:42:35.024Z,69.30
2022-12-06T03:45:46.382Z,69.40
2022-12-06T03:49:06.654Z,73.30
2022-12-06T03:52:10.035Z,67.50
2022-12-06T03:55:12.873Z,71.20
2022-12-06T03:58:15.631Z,72.10
2022-12-06T04:01:18.620Z,68.80
2022-12-06T04:04:21.513Z,61.10
2022-12-06T04:07:24.260Z,66.70
2022-12-06T04:10:27.097Z,68.20
2022-12-06T04:13:30.357Z,70.00
2022-12-06T04:16:52.030Z,70.70
2022-12-06T04:19:54.774Z,66.00
2022-12-06T04:23:06.372Z,65.00
2022-12-06T04:26:12.183Z,72.10
2022-12-06T04:29:33.699Z,64.20
2022-12-06T04:32:54.893Z,72.40
2022-12-06T04:36:16.493Z,68.50
2022-12-06T04:39:20.931Z,66.60
2022-12-06T04:42:43.095Z,64.20
2022-12-06T04:45:45.874Z,58.20
2022-12-06T04:48:48.590Z,67.00
2022-12-06T04:51:52.281Z,60.30
2022-12-06T04:54:55.090Z,57.90
2022-12-06T04:57:57.868Z,60.80
2022-12-06T05:01:00.664Z,62.20
2022-12-06T05:04:03.721Z,54.40
2022-12-06T05:07:06.685Z,63.00
2022-12-06T05:10:09.686Z,60.00
2022-12-06T05:13:12.416Z,61.20
2022-12-06T05:16:15.477Z,64.40
2022-12-06T05:19:18.267Z,62.80
2022-12-06T05:22:20.999Z,142.70
2022-12-06T05:25:23.926Z,88.70
2022-12-06T05:28:26.983Z,65.90
2022-12-06T05:31:29.914Z,61.90
2022-12-06T05:34:32.680Z,63.10
2022-12-06T05:37:35.467Z,62.40
2022-12-06T05:40:43.131Z,59.70
2022-12-06T05:43:46.033Z,67.40
2022-12-06T05:46:48.946Z,68.10
2022-12-06T05:49:51.724Z,65.50
2022-12-06T05:52:59.645Z,57.10
2022-12-06T05:56:07.531Z,67.50
2022-12-06T05:59:10.316Z,62.50
2022-12-06T06:02:13.130Z,60.60
2022-12-06T06:05:16.162Z,55.90
2022-12-06T06:08:18.980Z,60.60
2022-12-06T06:11:21.830Z,62.60
2022-12-06T06:14:24.671Z,56.80
2022-12-06T06:17:27.496Z,62.90
2022-12-06T06:20:30.579Z,67.40
2022-12-06T06:23:33.791Z,63.90
2022-12-06T06:26:36.703Z,61.90
2022-12-06T06:29:44.954Z,59.30
2022-12-06T06:32:48.307Z,68.30
2022-12-06T06:35:51.127Z,72.80
2022-12-06T06:38:53.922Z,72.60
2022-12-06T06:41:56.732Z,64.40
2022-12-06T06:44:59.507Z,57.90
2022-12-06T06:48:02.447Z,58.60
2022-12-06T06:51:08.330Z,63.50
2022-12-06T06:54:12.638Z,67.10
2022-12-06T06:57:17.834Z,59.20
2022-12-06T07:00:21.103Z,66.60
2022-12-06T07:03:24.329Z,63.90
2022-12-06T07:06:27.151Z,66.10
2022-12-06T07:09:29.906Z,59.10
2022-12-06T07:12:32.701Z,58.30
2022-12-06T07:15:36.534Z,56.00
2022-12-06T07:18:39.409Z,56.80
2022-12-06T07:21:42.171Z,54.00
2022-12-06T07:24:50.727Z,55.00
2022-12-06T07:27:55.287Z,59.00
2022-12-06T07:30:58.145Z,50.50
2022-12-06T07:34:02.512Z,54.70
2022-12-06T07:37:06.633Z,46.60
2022-12-06T07:40:09.985Z,58.90
2022-12-06T07:43:31.625Z,23.10
2022-12-06T07:46:34.535Z,34.00
2022-12-06T07:49:37.347Z,37.60
2022-12-06T07:52:40.360Z,35.30
2022-12-06T07:55:43.201Z,38.30
2022-12-06T07:58:46.084Z,40.80
2022-12-06T08:01:49.113Z,47.80
2022-12-06T08:04:53.121Z,46.60
2022-12-06T08:07:56.136Z,41.90
2022-12-06T08:11:00.647Z,42.70
2022-12-06T08:14:05.083Z,40.80
2022-12-06T08:17:07.835Z,38.60
2022-12-06T08:20:11.047Z,36.70
2022-12-06T08:23:13.991Z,33.10
2022-12-06T08:26:18.778Z,39.40
2022-12-06T08:29:21.723Z,29.30
2022-12-06T08:32:24.862Z,31.60
2022-12-06T08:35:28.022Z,31.10
2022-12-06T08:38:30.871Z,27.40
2022-12-06T08:41:52.407Z,30.70
2022-12-06T08:44:55.288Z,11.30
2022-12-06T08:47:58.230Z,25.50
2022-12-06T08:51:04.246Z,16.80
2022-12-06T08:54:08.940Z,26.00
2022-12-06T08:57:11.706Z,17.70
2022-12-06T09:00:15.134Z,26.90
2022-12-06T09:03:17.884Z,20.40
2022-12-06T09:06:22.384Z,22.80
2022-12-06T09:09:25.181Z,22.10
2022-12-06T09:12:27.970Z,17.00
2022-12-06T09:15:30.927Z,14.20
2022-12-06T09:18:33.946Z,16.10
2022-12-06T09:21:39.879Z,16.50
2022-12-06T09:24:42.786Z,19.30
2022-12-06T09:27:45.760Z,19.80
2022-12-06T09:30:48.625Z,16.30
2022-12-06T09:33:52.223Z,21.40
2022-12-06T09:37:12.123Z,28.70
2022-12-06T09:40:32.630Z,9.30
2022-12-06T09:43:44.629Z,14.70
2022-12-06T09:46:56.297Z,32.50
2022-12-06T09:50:11.201Z,63.00
2022-12-06T09:53:20.098Z,22.90
2022-12-06T09:56:40.441Z,22.40
2022-12-06T10:00:11.860Z,24.50
2022-12-06T10:03:32.387Z,30.50
2022-12-06T10:06:44.758Z,21.50
2022-12-06T10:10:18.261Z,12.50
2022-12-06T10:13:30.096Z,19.30
2022-12-06T10:16:38.793Z,7.70
2022-12-06T10:19:50.653Z,7.60
2022-12-06T10:23:02.649Z,6.00
2022-12-06T10:26:25.673Z,25.70
2022-12-06T10:30:01.375Z,34.50
2022-12-06T10:33:20.492Z,19.20
2022-12-06T10:36:52.930Z,12.30
2022-12-06T10:40:01.978Z,7.20
2022-12-06T10:43:18.503Z,25.20
2022-12-06T10:46:50.414Z,16.40
2022-12-06T10:50:04.864Z,16.50
2022-12-06T10:56:41.648Z,12.00
2022-12-06T10:59:54.663Z,17.40
2022-12-06T11:03:03.202Z,13.80
2022-12-06T11:06:14.468Z,20.50
2022-12-06T11:09:32.633Z,15.30
2022-12-06T11:12:39.105Z,19.00
2022-12-06T11:15:49.207Z,18.00
2022-12-06T11:18:56.382Z,14.30
2022-12-06T11:22:17.547Z,13.00
2022-12-06T11:25:40.864Z,12.00
2022-12-06T11:28:52.646Z,14.30
2022-12-06T11:31:58.777Z,11.00
2022-12-06T11:35:02.055Z,20.10
2022-12-06T11:38:07.457Z,16.00
2022-12-06T11:41:17.677Z,28.80
2022-12-06T11:44:25.642Z,21.60
2022-12-06T11:47:28.493Z,45.10
2022-12-06T11:50:33.615Z,28.40
2022-12-06T11:53:46.751Z,17.10
2022-12-06T11:56:50.352Z,32.60
2022-12-06T12:00:16.647Z,35.10
2022-12-06T12:03:34.660Z,22.40
2022-12-06T12:06:37.512Z,18.60
2022-12-06T12:10:27.455Z,10.90
2022-12-06T12:13:46.599Z,13.60
2022-12-06T12:16:50.709Z,17.70
2022-12-06T12:20:06.714Z,19.40
2022-12-06T12:23:33.693Z,9.50
2022-12-06T12:26:40.815Z,12.80
2022-12-06T12:29:43.644Z,12.70
2022-12-06T12:32:47.903Z,13.60
2022-12-06T12:36:04.402Z,10.50
2022-12-06T12:39:42.045Z,7.30
2022-12-06T12:42:46.492Z,10.60
2022-12-06T12:46:06.973Z,7.60
2022-12-06T12:49:28.840Z,11.40
2022-12-06T12:52:42.571Z,12.70
2022-12-06T12:55:45.643Z,11.10
2022-12-06T12:58:52.290Z,4.70
2022-12-06T13:02:20.069Z,6.70
2022-12-06T13:05:34.710Z,7.10
2022-12-06T13:08:39.196Z,6.10
2022-12-06T13:11:47.093Z,7.90
2022-12-06T13:15:00.208Z,6.80
2022-12-06T13:18:11.778Z,5.80
2022-12-06T13:21:20.157Z,9.50
2022-12-06T13:24:27.312Z,16.00
2022-12-06T13:27:36.912Z,110.70
2022-12-06T13:30:42.188Z,15.10
2022-12-06T13:34:12.632Z,6.40
2022-12-06T13:37:37.270Z,6.20
2022-12-06T13:40:47.443Z,7.20
2022-12-06T13:43:50.384Z,9.90
2022-12-06T13:47:28.136Z,11.90
2022-12-06T13:50:33.904Z,23.00
2022-12-06T13:54:05.737Z,15.70
2022-12-06T13:57:22.988Z,10.00
2022-12-06T14:00:28.998Z,12.70
2022-12-06T14:03:31.782Z,6.30
2022-12-06T14:06:43.229Z,8.20
2022-12-06T14:09:50.124Z,10.90
2022-12-06T14:13:00.958Z,12.80
2022-12-06T14:16:05.120Z,7.90
2022-12-06T14:19:24.307Z,9.40
2022-12-06T14:22:34.764Z,10.90
2022-12-06T14:25:37.536Z,9.50
2022-12-06T14:28:41.244Z,7.60
2022-12-06T14:31:43.988Z,11.60
2022-12-06T14:34:48.659Z,5.60
2022-12-06T14:37:54.689Z,6.80
2022-12-06T14:41:16.877Z,11.80
2022-12-06T14:44:21.558Z,18.40
2022-12-06T14:47:24.450Z,6.10
2022-12-06T14:50:40.141Z,7.50
2022-12-06T14:53:43.823Z,15.00
2022-12-06T14:56:48.103Z,11.40
2022-12-06T15:00:25.865Z,8.20
2022-12-06T15:03:35.504Z,9.20
2022-12-06T15:06:52.837Z,12.80
2022-12-06T15:09:55.675Z,12.00
2022-12-06T15:13:15.498Z,11.00
2022-12-06T15:16:18.515Z,20.90
2022-12-06T15:19:21.370Z,15.60
2022-12-06T15:22:27.731Z,17.30
2022-12-06T15:25:30.845Z,19.90
2022-12-06T15:28:37.356Z,11.20
2022-12-06T15:34:45.266Z,16.90
2022-12-06T15:37:50.525Z,15.60
2022-12-06T15:40:56.147Z,12.40
2022-12-06T15:43:58.892Z,5.80
2022-12-06T15:47:01.845Z,10.00
2022-12-06T15:50:05.124Z,15.50
2022-12-06T15:53:13.607Z,12.80
2022-12-06T15:56:19.984Z,12.40
2022-12-06T15:59:22.833Z,13.50
2022-12-06T16:02:25.754Z,16.40
2022-12-06T16:05:29.439Z,18.60
2022-12-06T16:08:32.372Z,20.90
2022-12-06T16:11:35.341Z,18.80
2022-12-06T16:14:38.223Z,22.80
2022-12-06T16:17:40.985Z,17.60
2022-12-06T16:20:43.768Z,13.90
2022-12-06T16:24:13.200Z,15.20
2022-12-06T16:27:16.658Z,17.40
2022-12-06T16:30:34.117Z,14.30
2022-12-06T16:33:37.049Z,12.50
2022-12-06T16:37:02.020Z,15.00
2022-12-06T16:40:05.654Z,13.80
2022-12-06T16:43:09.262Z,19.60
2022-12-06T16:46:27.619Z,18.10
2022-12-06T16:52:52.367Z,19.20
2022-12-06T16:55:55.084Z,21.10
2022-12-06T16:58:58.416Z,17.30
2022-12-06T17:02:01.720Z,15.50
2022-12-06T17:05:08.362Z,12.70
2022-12-06T17:11:38.353Z,13.10
2022-12-06T17:14:42.518Z,11.30
2022-12-06T17:17:46.146Z,5.70
2022-12-06T17:20:48.927Z,6.10
2022-12-06T17:23:51.917Z,7.30
2022-12-06T17:26:55.861Z,7.60
2022-12-06T17:29:58.961Z,9.20
2022-12-06T17:33:01.830Z,6.50
2022-12-06T17:36:06.979Z,8.60
2022-12-06T17:39:11.192Z,7.10
2022-12-06T17:42:32.786Z,5.90
2022-12-06T17:45:35.842Z,6.00
2022-12-06T17:48:44.306Z,9.00
2022-12-06T17:51:47.876Z,5.60
2022-12-06T17:54:50.725Z,4.50
2022-12-06T17:57:53.472Z,7.70
2022-12-06T18:00:58.956Z,5.80
2022-12-06T18:04:03.833Z,5.20
2022-12-06T18:07:06.642Z,5.20
2022-12-06T18:10:10.059Z,4.50
2022-12-06T18:13:12.884Z,4.40
2022-12-06T18:16:21.815Z,6.10
2022-12-06T18:19:24.640Z,5.70
2022-12-06T18:22:27.466Z,4.20
2022-12-06T18:25:30.281Z,3.30
2022-12-06T18:28:33.059Z,4.30
2022-12-06T18:31:36.995Z,3.00
2022-12-06T18:34:39.870Z,5.40
2022-12-06T18:37:42.838Z,2.20
2022-12-06T18:40:46.304Z,2.00
2022-12-06T18:43:49.343Z,3.40
2022-12-06T18:46:52.363Z,4.80
2022-12-06T18:49:56.621Z,3.60
2022-12-06T18:53:00.827Z,4.70
2022-12-06T18:56:06.677Z,5.30
2022-12-06T18:59:11.629Z,7.50
2022-12-06T19:02:14.670Z,5.90
2022-12-06T19:05:33.071Z,7.80
2022-12-06T19:08:42.582Z,6.00
2022-12-06T19:11:46.417Z,5.60
2022-12-06T19:14:52.200Z,5.00
2022-12-06T19:17:55.057Z,4.70
2022-12-06T19:21:01.877Z,4.90
2022-12-06T19:24:04.950Z,6.90
2022-12-06T19:27:07.916Z,5.10
2022-12-06T19:30:11.499Z,6.40
2022-12-06T19:33:14.301Z,7.20
2022-12-06T19:36:20.385Z,7.20
2022-12-06T19:39:24.143Z,6.30
2022-12-06T19:42:46.172Z,4.80
2022-12-06T19:45:49.056Z,4.90
2022-12-06T19:48:53.658Z,5.80
2022-12-06T19:51:56.484Z,4.80
2022-12-06T19:54:59.333Z,5.30
2022-12-06T19:58:02.184Z,5.20
2022-12-06T20:01:10.574Z,8.40
2022-12-06T20:04:16.755Z,8.00
2022-12-06T20:07:19.607Z,9.40
2022-12-06T20:10:22.396Z,7.80
2022-12-06T20:13:25.241Z,10.30
2022-12-06T20:16:28.108Z,7.60
2022-12-06T20:19:30.948Z,8.00
2022-12-06T20:22:33.757Z,6.00
2022-12-06T20:25:37.212Z,5.10
2022-12-06T20:28:40.202Z,5.00
2022-12-06T20:31:43.039Z,5.50
2022-12-06T20:34:45.883Z,6.80
2022-12-06T20:37:51.877Z,7.50
2022-12-06T20:40:54.791Z,9.50
2022-12-06T20:43:57.831Z,10.80
2022-12-06T20:47:00.919Z,22.80
2022-12-06T20:50:04.743Z,7.10
2022-12-06T20:53:07.495Z,8.10
2022-12-06T20:56:13.262Z,10.60
2022-12-06T20:59:15.981Z,7.40
2022-12-06T21:02:18.865Z,5.70
2022-12-06T21:05:21.646Z,6.90
2022-12-06T21:08:24.465Z,5.00
2022-12-06T21:11:27.372Z,5.20
2022-12-06T21:14:30.296Z,4.00
2022-12-06T21:17:33.139Z,5.80
2022-12-06T21:20:40.027Z,6.10
2022-12-06T21:23:42.784Z,7.90
2022-12-06T21:26:45.937Z,7.40
2022-12-06T21:29:48.858Z,5.80
2022-12-06T21:32:51.614Z,4.50
2022-12-06T21:36:01.332Z,5.30
2022-12-06T21:39:04.851Z,6.60
2022-12-06T21:42:07.944Z,5.80
2022-12-06T21:45:11.304Z,7.10
2022-12-06T21:48:14.148Z,6.40
2022-12-06T21:51:17.036Z,4.40
2022-12-06T21:54:19.753Z,5.30
2022-12-06T21:57:22.484Z,5.20
2022-12-06T22:00:25.297Z,6.60
2022-12-06T22:03:28.398Z,4.10
2022-12-06T22:06:32.823Z,7.00
2022-12-06T22:09:35.760Z,9.40
2022-12-06T22:12:38.689Z,5.50
2022-12-06T22:15:41.493Z,6.80
2022-12-06T22:18:46.357Z,9.80
2022-12-06T22:21:49.414Z,5.50
2022-12-06T22:24:52.304Z,6.90
2022-12-06T22:27:55.127Z,8.10
2022-12-06T22:31:13.371Z,7.40
2022-12-06T22:34:16.240Z,7.10
2022-12-06T22:37:21.878Z,8.20
2022-12-06T22:40:28.110Z,6.60
2022-12-06T22:43:30.987Z,5.20
2022-12-06T22:46:35.910Z,5.10
2022-12-06T22:49:38.933Z,4.40
2022-12-06T22:52:41.766Z,4.20
2022-12-06T22:55:44.519Z,4.60
2022-12-06T22:58:47.603Z,5.50
2022-12-06T23:01:50.493Z,4.10
2022-12-06T23:04:53.428Z,5.50
2022-12-06T23:07:57.400Z,6.90
2022-12-06T23:11:06.596Z,5.50
2022-12-06T23:14:09.376Z,5.20
2022-12-06T23:17:12.119Z,5.20
2022-12-06T23:20:15.068Z,5.60
2022-12-06T23:23:17.867Z,3.50
2022-12-06T23:26:26.591Z,4.30
2022-12-06T23:29:29.624Z,3.60
2022-12-06T23:32:32.460Z,4.10
2022-12-06T23:35:35.262Z,5.10
2022-12-06T23:38:38.809Z,5.00
2022-12-06T23:41:41.796Z,4.10
2022-12-06T23:44:44.538Z,2.80
2022-12-06T23:47:47.329Z,2.90
2022-12-06T23:50:58.757Z,4.20
2022-12-06T23:54:04.084Z,5.80
2022-12-06T23:57:06.833Z,5.00
